sensor_id;sensor_type;location;lat;lon;timestamp;pressure;altitude;pressure_sealevel;temperature;humidity
42591;BME280;28218;53.342;-6.216;2022-08-01T00:00:09;101715.03;;;16.82;100.00
42591;BME280;28218;53.342;-6.216;2022-08-01T00:02:38;101713.56;;;16.80;100.00
42591;BME280;28218;53.342;-6.216;2022-08-01T00:05:08;101714.56;;;16.79;100.00
42591;BME280;28218;53.342;-6.216;2022-08-01T00:07:37;101723.91;;;16.75;100.00
42591;BME280;28218;53.342;-6.216;2022-08-01T00:10:09;101728.41;;;16.74;100.00
42591;BME280;28218;53.342;-6.216;2022-08-01T00:12:38;101733.56;;;16.76;100.00
42591;BME280;28218;53.342;-6.216;2022-08-01T00:15:09;101727.22;;;16.77;100.00
42591;BME280;28218;53.342;-6.216;2022-08-01T00:17:39;101726.88;;;16.80;100.00
42591;BME280;28218;53.342;-6.216;2022-08-01T00:20:10;101724.03;;;16.81;100.00
42591;BME280;28218;53.342;-6.216;2022-08-01T00:22:39;101722.19;;;16.82;100.00
42591;BME280;28218;53.342;-6.216;2022-08-01T00:25:07;101717.06;;;16.80;100.00
42591;BME280;28218;53.342;-6.216;2022-08-01T00:27:36;101717.88;;;16.81;100.00
42591;BME280;28218;53.342;-6.216;2022-08-01T00:30:05;101718.69;;;16.81;100.00
42591;BME280;28218;53.342;-6.216;2022-08-01T00:32:41;101718.69;;;16.81;100.00
42591;BME280;28218;53.342;-6.216;2022-08-01T00:35:09;101722.38;;;16.80;100.00
42591;BME280;28218;53.342;-6.216;2022-08-01T00:37:37;101719.88;;;16.79;100.00
42591;BME280;28218;53.342;-6.216;2022-08-01T00:40:07;101712.91;;;16.78;100.00
42591;BME280;28218;53.342;-6.216;2022-08-01T00:42:35;101714.28;;;16.74;100.00
42591;BME280;28218;53.342;-6.216;2022-08-01T00:45:09;101715.31;;;16.73;100.00
42591;BME280;28218;53.342;-6.216;2022-08-01T00:47:38;101709.69;;;16.68;100.00
42591;BME280;28218;53.342;-6.216;2022-08-01T00:50:09;101719.84;;;16.64;100.00
42591;BME280;28218;53.342;-6.216;2022-08-01T00:52:39;101719.59;;;16.59;100.00
42591;BME280;28218;53.342;-6.216;2022-08-01T00:55:08;101721.78;;;16.55;100.00
42591;BME280;28218;53.342;-6.216;2022-08-01T00:57:41;101726.66;;;16.52;100.00
42591;BME280;28218;53.342;-6.216;2022-08-01T01:00:29;101726.19;;;16.48;100.00
42591;BME280;28218;53.342;-6.216;2022-08-01T01:03:19;101726.38;;;16.47;100.00
42591;BME280;28218;53.342;-6.216;2022-08-01T01:06:11;101726.53;;;16.45;100.00
42591;BME280;28218;53.342;-6.216;2022-08-01T01:08:46;101730.56;;;16.41;100.00
42591;BME280;28218;53.342;-6.216;2022-08-01T01:11:21;101723.97;;;16.37;100.00
42591;BME280;28218;53.342;-6.216;2022-08-01T01:13:57;101724.97;;;16.36;100.00
42591;BME280;28218;53.342;-6.216;2022-08-01T01:16:30;101720.03;;;16.33;100.00
42591;BME280;28218;53.342;-6.216;2022-08-01T01:19:01;101727.00;;;16.34;100.00
42591;BME280;28218;53.342;-6.216;2022-08-01T01:21:44;101717.53;;;16.31;100.00
42591;BME280;28218;53.342;-6.216;2022-08-01T01:24:21;101725.50;;;16.31;100.00
42591;BME280;28218;53.342;-6.216;2022-08-01T01:27:01;101721.41;;;16.29;100.00
42591;BME280;28218;53.342;-6.216;2022-08-01T01:29:38;101717.09;;;16.28;100.00
42591;BME280;28218;53.342;-6.216;2022-08-01T01:32:31;101718.91;;;16.27;100.00
42591;BME280;28218;53.342;-6.216;2022-08-01T01:35:05;101712.94;;;16.25;100.00
42591;BME280;28218;53.342;-6.216;2022-08-01T01:37:35;101710.50;;;16.24;100.00
42591;BME280;28218;53.342;-6.216;2022-08-01T01:40:08;101701.69;;;16.23;100.00
42591;BME280;28218;53.342;-6.216;2022-08-01T01:42:38;101706.16;;;16.23;100.00
42591;BME280;28218;53.342;-6.216;2022-08-01T01:45:10;101702.66;;;16.22;100.00
42591;BME280;28218;53.342;-6.216;2022-08-01T01:47:39;101704.69;;;16.20;100.00
42591;BME280;28218;53.342;-6.216;2022-08-01T01:50:08;101707.72;;;16.17;100.00
42591;BME280;28218;53.342;-6.216;2022-08-01T01:52:40;101698.91;;;16.17;100.00
42591;BME280;28218;53.342;-6.216;2022-08-01T01:55:12;101698.28;;;16.15;100.00
42591;BME280;28218;53.342;-6.216;2022-08-01T01:57:43;101704.22;;;16.17;100.00
42591;BME280;28218;53.342;-6.216;2022-08-01T02:00:14;101698.72;;;16.18;100.00
42591;BME280;28218;53.342;-6.216;2022-08-01T02:02:44;101697.25;;;16.16;100.00
42591;BME280;28218;53.342;-6.216;2022-08-01T02:05:13;101700.09;;;16.14;100.00
42591;BME280;28218;53.342;-6.216;2022-08-01T02:07:42;101701.28;;;16.12;100.00
42591;BME280;28218;53.342;-6.216;2022-08-01T02:10:15;101692.69;;;16.09;100.00
42591;BME280;28218;53.342;-6.216;2022-08-01T02:12:46;101704.47;;;16.07;100.00
42591;BME280;28218;53.342;-6.216;2022-08-01T02:15:17;101711.00;;;16.04;100.00
42591;BME280;28218;53.342;-6.216;2022-08-01T02:17:48;101700.38;;;16.04;100.00
42591;BME280;28218;53.342;-6.216;2022-08-01T02:20:17;101704.00;;;16.03;100.00
42591;BME280;28218;53.342;-6.216;2022-08-01T02:22:48;101694.19;;;16.04;100.00
42591;BME280;28218;53.342;-6.216;2022-08-01T02:25:22;101699.72;;;16.02;100.00
42591;BME280;28218;53.342;-6.216;2022-08-01T02:27:57;101698.06;;;16.01;100.00
42591;BME280;28218;53.342;-6.216;2022-08-01T02:30:33;101697.41;;;15.99;100.00
42591;BME280;28218;53.342;-6.216;2022-08-01T02:33:06;101694.09;;;15.97;100.00
42591;BME280;28218;53.342;-6.216;2022-08-01T02:35:43;101684.47;;;15.96;100.00
42591;BME280;28218;53.342;-6.216;2022-08-01T02:38:35;101678.16;;;15.97;100.00
42591;BME280;28218;53.342;-6.216;2022-08-01T02:41:07;101683.28;;;15.99;100.00
42591;BME280;28218;53.342;-6.216;2022-08-01T02:43:37;101681.81;;;15.96;100.00
42591;BME280;28218;53.342;-6.216;2022-08-01T02:46:09;101677.53;;;15.95;100.00
42591;BME280;28218;53.342;-6.216;2022-08-01T02:48:41;101675.84;;;15.94;100.00
42591;BME280;28218;53.342;-6.216;2022-08-01T02:51:11;101676.84;;;15.93;100.00
42591;BME280;28218;53.342;-6.216;2022-08-01T02:53:43;101675.03;;;15.94;100.00
42591;BME280;28218;53.342;-6.216;2022-08-01T02:56:15;101675.84;;;15.94;100.00
42591;BME280;28218;53.342;-6.216;2022-08-01T02:58:46;101677.69;;;15.94;100.00
42591;BME280;28218;53.342;-6.216;2022-08-01T03:01:17;101679.16;;;15.96;100.00
42591;BME280;28218;53.342;-6.216;2022-08-01T03:03:48;101668.88;;;15.93;100.00
42591;BME280;28218;53.342;-6.216;2022-08-01T03:06:17;101660.91;;;15.93;100.00
42591;BME280;28218;53.342;-6.216;2022-08-01T03:08:46;101663.56;;;15.93;100.00
42591;BME280;28218;53.342;-6.216;2022-08-01T03:11:15;101653.94;;;15.92;100.00
42591;BME280;28218;53.342;-6.216;2022-08-01T03:13:47;101658.44;;;15.92;100.00
42591;BME280;28218;53.342;-6.216;2022-08-01T03:16:18;101660.44;;;15.90;100.00
42591;BME280;28218;53.342;-6.216;2022-08-01T03:18:51;101671.25;;;15.88;100.00
42591;BME280;28218;53.342;-6.216;2022-08-01T03:21:22;101682.09;;;15.87;100.00
42591;BME280;28218;53.342;-6.216;2022-08-01T03:23:52;101679.13;;;15.81;100.00
42591;BME280;28218;53.342;-6.216;2022-08-01T03:26:26;101672.00;;;15.82;100.00
42591;BME280;28218;53.342;-6.216;2022-08-01T03:28:57;101666.00;;;15.80;100.00
42591;BME280;28218;53.342;-6.216;2022-08-01T03:31:27;101665.72;;;15.75;100.00
42591;BME280;28218;53.342;-6.216;2022-08-01T03:33:57;101662.44;;;15.73;100.00
42591;BME280;28218;53.342;-6.216;2022-08-01T03:36:32;101663.44;;;15.72;100.00
42591;BME280;28218;53.342;-6.216;2022-08-01T03:39:03;101665.44;;;15.70;100.00
42591;BME280;28218;53.342;-6.216;2022-08-01T03:41:39;101659.31;;;15.69;100.00
42591;BME280;28218;53.342;-6.216;2022-08-01T03:44:13;101662.78;;;15.70;100.00
42591;BME280;28218;53.342;-6.216;2022-08-01T03:46:47;101662.97;;;15.68;100.00
42591;BME280;28218;53.342;-6.216;2022-08-01T03:49:18;101665.81;;;15.67;100.00
42591;BME280;28218;53.342;-6.216;2022-08-01T03:51:49;101664.97;;;15.66;100.00
42591;BME280;28218;53.342;-6.216;2022-08-01T03:54:21;101661.31;;;15.67;100.00
42591;BME280;28218;53.342;-6.216;2022-08-01T03:56:51;101661.47;;;15.66;100.00
42591;BME280;28218;53.342;-6.216;2022-08-01T03:59:20;101657.19;;;15.65;100.00
42591;BME280;28218;53.342;-6.216;2022-08-01T04:01:51;101653.69;;;15.64;100.00
42591;BME280;28218;53.342;-6.216;2022-08-01T04:04:19;101650.38;;;15.62;100.00
42591;BME280;28218;53.342;-6.216;2022-08-01T04:06:48;101654.19;;;15.59;100.00
42591;BME280;28218;53.342;-6.216;2022-08-01T04:09:17;101660.53;;;15.58;100.00
42591;BME280;28218;53.342;-6.216;2022-08-01T04:11:46;101646.41;;;15.58;100.00
42591;BME280;28218;53.342;-6.216;2022-08-01T04:14:14;101643.91;;;15.56;100.00
42591;BME280;28218;53.342;-6.216;2022-08-01T04:16:43;101641.44;;;15.55;100.00
42591;BME280;28218;53.342;-6.216;2022-08-01T04:19:13;101649.22;;;15.56;100.00
42591;BME280;28218;53.342;-6.216;2022-08-01T04:21:41;101641.44;;;15.55;100.00
42591;BME280;28218;53.342;-6.216;2022-08-01T04:24:13;101642.28;;;15.55;100.00
42591;BME280;28218;53.342;-6.216;2022-08-01T04:26:45;101644.94;;;15.55;100.00
42591;BME280;28218;53.342;-6.216;2022-08-01T04:29:14;101654.91;;;15.53;100.00
42591;BME280;28218;53.342;-6.216;2022-08-01T04:31:45;101646.28;;;15.51;100.00
42591;BME280;28218;53.342;-6.216;2022-08-01T04:34:17;101644.84;;;15.49;100.00
42591;BME280;28218;53.342;-6.216;2022-08-01T04:36:50;101648.00;;;15.44;100.00
42591;BME280;28218;53.342;-6.216;2022-08-01T04:39:19;101643.53;;;15.45;100.00
42591;BME280;28218;53.342;-6.216;2022-08-01T04:41:49;101638.41;;;15.43;100.00
42591;BME280;28218;53.342;-6.216;2022-08-01T04:44:18;101631.41;;;15.42;100.00
42591;BME280;28218;53.342;-6.216;2022-08-01T04:46:46;101624.47;;;15.41;100.00
42591;BME280;28218;53.342;-6.216;2022-08-01T04:49:16;101619.34;;;15.40;100.00
42591;BME280;28218;53.342;-6.216;2022-08-01T04:51:51;101613.66;;;15.43;100.00
42591;BME280;28218;53.342;-6.216;2022-08-01T04:54:24;101608.53;;;15.41;100.00
42591;BME280;28218;53.342;-6.216;2022-08-01T04:56:53;101610.16;;;15.42;100.00
42591;BME280;28218;53.342;-6.216;2022-08-01T04:59:22;101612.19;;;15.40;100.00
42591;BME280;28218;53.342;-6.216;2022-08-01T05:02:10;101609.25;;;15.35;100.00
42591;BME280;28218;53.342;-6.216;2022-08-01T05:04:41;101619.03;;;15.34;100.00
42591;BME280;28218;53.342;-6.216;2022-08-01T05:07:10;101622.69;;;15.33;100.00
42591;BME280;28218;53.342;-6.216;2022-08-01T05:09:39;101627.34;;;15.31;100.00
42591;BME280;28218;53.342;-6.216;2022-08-01T05:12:09;101619.38;;;15.31;100.00
42591;BME280;28218;53.342;-6.216;2022-08-01T05:14:37;101621.84;;;15.33;100.00
42591;BME280;28218;53.342;-6.216;2022-08-01T05:17:07;101619.88;;;15.35;100.00
42591;BME280;28218;53.342;-6.216;2022-08-01T05:19:37;101627.16;;;15.33;100.00
42591;BME280;28218;53.342;-6.216;2022-08-01T05:22:08;101638.16;;;15.30;100.00
42591;BME280;28218;53.342;-6.216;2022-08-01T05:24:38;101632.66;;;15.31;100.00
42591;BME280;28218;53.342;-6.216;2022-08-01T05:27:07;101629.19;;;15.31;100.00
42591;BME280;28218;53.342;-6.216;2022-08-01T05:29:39;101629.38;;;15.29;100.00
42591;BME280;28218;53.342;-6.216;2022-08-01T05:32:10;101632.38;;;15.26;100.00
42591;BME280;28218;53.342;-6.216;2022-08-01T05:34:38;101622.56;;;15.27;100.00
42591;BME280;28218;53.342;-6.216;2022-08-01T05:37:08;101632.03;;;15.29;100.00
42591;BME280;28218;53.342;-6.216;2022-08-01T05:39:36;101631.03;;;15.30;100.00
42591;BME280;28218;53.342;-6.216;2022-08-01T05:42:05;101634.31;;;15.32;100.00
42591;BME280;28218;53.342;-6.216;2022-08-01T05:44:34;101618.22;;;15.34;100.00
42591;BME280;28218;53.342;-6.216;2022-08-01T05:47:02;101612.72;;;15.36;100.00
42591;BME280;28218;53.342;-6.216;2022-08-01T05:49:30;101604.41;;;15.39;100.00
42591;BME280;28218;53.342;-6.216;2022-08-01T05:51:58;101595.53;;;15.46;100.00
42591;BME280;28218;53.342;-6.216;2022-08-01T05:54:30;101606.28;;;15.53;100.00
42591;BME280;28218;53.342;-6.216;2022-08-01T05:56:59;101604.34;;;15.62;100.00
42591;BME280;28218;53.342;-6.216;2022-08-01T05:59:28;101588.56;;;15.68;100.00
42591;BME280;28218;53.342;-6.216;2022-08-01T06:01:57;101593.81;;;15.76;100.00
42591;BME280;28218;53.342;-6.216;2022-08-01T06:04:25;101585.75;;;15.84;100.00
42591;BME280;28218;53.342;-6.216;2022-08-01T06:06:53;101576.59;;;15.87;100.00
42591;BME280;28218;53.342;-6.216;2022-08-01T06:09:21;101568.91;;;15.92;100.00
42591;BME280;28218;53.342;-6.216;2022-08-01T06:11:51;101573.47;;;15.98;100.00
42591;BME280;28218;53.342;-6.216;2022-08-01T06:14:19;101570.28;;;16.03;100.00
42591;BME280;28218;53.342;-6.216;2022-08-01T06:16:47;101569.09;;;16.05;100.00
42591;BME280;28218;53.342;-6.216;2022-08-01T06:19:15;101571.00;;;16.12;100.00
42591;BME280;28218;53.342;-6.216;2022-08-01T06:21:44;101566.16;;;16.15;100.00
42591;BME280;28218;53.342;-6.216;2022-08-01T06:24:12;101563.41;;;16.23;100.00
42591;BME280;28218;53.342;-6.216;2022-08-01T06:26:40;101567.78;;;16.31;100.00
42591;BME280;28218;53.342;-6.216;2022-08-01T06:29:10;101557.25;;;16.38;100.00
42591;BME280;28218;53.342;-6.216;2022-08-01T06:31:39;101560.16;;;16.43;100.00
42591;BME280;28218;53.342;-6.216;2022-08-01T06:34:07;101560.88;;;16.51;100.00
42591;BME280;28218;53.342;-6.216;2022-08-01T06:36:36;101565.25;;;16.74;100.00
42591;BME280;28218;53.342;-6.216;2022-08-01T06:39:04;101551.91;;;17.10;100.00
42591;BME280;28218;53.342;-6.216;2022-08-01T06:41:32;101559.06;;;17.59;100.00
42591;BME280;28218;53.342;-6.216;2022-08-01T06:44:00;101548.56;;;18.13;100.00
42591;BME280;28218;53.342;-6.216;2022-08-01T06:46:33;101529.66;;;18.56;100.00
42591;BME280;28218;53.342;-6.216;2022-08-01T06:49:02;101526.03;;;18.71;100.00
42591;BME280;28218;53.342;-6.216;2022-08-01T06:51:30;101525.78;;;18.65;100.00
42591;BME280;28218;53.342;-6.216;2022-08-01T06:53:59;101540.94;;;18.52;100.00
42591;BME280;28218;53.342;-6.216;2022-08-01T06:56:27;101537.81;;;18.35;100.00
42591;BME280;28218;53.342;-6.216;2022-08-01T06:58:55;101538.34;;;18.17;100.00
42591;BME280;28218;53.342;-6.216;2022-08-01T07:01:27;101554.22;;;17.97;100.00
42591;BME280;28218;53.342;-6.216;2022-08-01T07:04:01;101559.06;;;17.80;100.00
42591;BME280;28218;53.342;-6.216;2022-08-01T07:06:29;101558.94;;;17.67;100.00
42591;BME280;28218;53.342;-6.216;2022-08-01T07:08:57;101566.81;;;17.54;100.00
42591;BME280;28218;53.342;-6.216;2022-08-01T07:11:36;101578.84;;;17.43;100.00
42591;BME280;28218;53.342;-6.216;2022-08-01T07:14:04;101568.56;;;17.40;100.00
42591;BME280;28218;53.342;-6.216;2022-08-01T07:16:33;101572.63;;;17.64;100.00
42591;BME280;28218;53.342;-6.216;2022-08-01T07:19:02;101571.47;;;18.01;100.00
42591;BME280;28218;53.342;-6.216;2022-08-01T07:21:31;101571.03;;;18.39;100.00
42591;BME280;28218;53.342;-6.216;2022-08-01T07:24:09;101576.56;;;18.79;100.00
42591;BME280;28218;53.342;-6.216;2022-08-01T07:26:41;101571.06;;;19.13;100.00
42591;BME280;28218;53.342;-6.216;2022-08-01T07:29:21;101562.03;;;19.41;100.00
42591;BME280;28218;53.342;-6.216;2022-08-01T07:31:50;101556.91;;;19.59;100.00
42591;BME280;28218;53.342;-6.216;2022-08-01T07:34:20;101553.00;;;19.69;100.00
42591;BME280;28218;53.342;-6.216;2022-08-01T07:36:48;101561.63;;;19.71;100.00
42591;BME280;28218;53.342;-6.216;2022-08-01T07:39:17;101565.75;;;19.66;100.00
42591;BME280;28218;53.342;-6.216;2022-08-01T07:41:45;101561.25;;;19.60;100.00
42591;BME280;28218;53.342;-6.216;2022-08-01T07:44:33;101575.63;;;19.53;100.00
42591;BME280;28218;53.342;-6.216;2022-08-01T07:47:02;101577.69;;;19.44;100.00
42591;BME280;28218;53.342;-6.216;2022-08-01T07:49:31;101578.47;;;19.38;100.00
42591;BME280;28218;53.342;-6.216;2022-08-01T07:52:06;101587.72;;;19.29;100.00
42591;BME280;28218;53.342;-6.216;2022-08-01T07:54:34;101582.38;;;19.22;100.00
42591;BME280;28218;53.342;-6.216;2022-08-01T07:57:03;101585.03;;;19.09;100.00
42591;BME280;28218;53.342;-6.216;2022-08-01T07:59:31;101577.84;;;18.96;100.00
42591;BME280;28218;53.342;-6.216;2022-08-01T08:01:59;101579.06;;;18.94;100.00
42591;BME280;28218;53.342;-6.216;2022-08-01T08:04:28;101578.22;;;18.80;100.00
42591;BME280;28218;53.342;-6.216;2022-08-01T08:06:58;101573.25;;;18.77;100.00
42591;BME280;28218;53.342;-6.216;2022-08-01T08:09:26;101575.72;;;18.72;100.00
42591;BME280;28218;53.342;-6.216;2022-08-01T08:11:54;101569.75;;;18.70;100.00
42591;BME280;28218;53.342;-6.216;2022-08-01T08:14:22;101580.44;;;18.70;100.00
42591;BME280;28218;53.342;-6.216;2022-08-01T08:16:58;101576.13;;;18.69;100.00
42591;BME280;28218;53.342;-6.216;2022-08-01T08:19:28;101583.72;;;18.72;100.00
42591;BME280;28218;53.342;-6.216;2022-08-01T08:22:06;101577.38;;;18.73;100.00
42591;BME280;28218;53.342;-6.216;2022-08-01T08:24:36;101572.25;;;18.78;100.00
42591;BME280;28218;53.342;-6.216;2022-08-01T08:27:13;101565.88;;;18.79;100.00
42591;BME280;28218;53.342;-6.216;2022-08-01T08:29:41;101562.19;;;18.80;100.00
42591;BME280;28218;53.342;-6.216;2022-08-01T08:32:11;101561.97;;;18.75;100.00
42591;BME280;28218;53.342;-6.216;2022-08-01T08:34:39;101558.91;;;18.78;100.00
42591;BME280;28218;53.342;-6.216;2022-08-01T08:37:09;101556.66;;;18.88;100.00
42591;BME280;28218;53.342;-6.216;2022-08-01T08:39:38;101552.56;;;18.92;100.00
42591;BME280;28218;53.342;-6.216;2022-08-01T08:42:09;101557.91;;;18.92;100.00
42591;BME280;28218;53.342;-6.216;2022-08-01T08:44:39;101551.72;;;18.85;100.00
42591;BME280;28218;53.342;-6.216;2022-08-01T08:47:11;101552.97;;;18.89;100.00
42591;BME280;28218;53.342;-6.216;2022-08-01T08:49:45;101556.47;;;18.96;100.00
42591;BME280;28218;53.342;-6.216;2022-08-01T08:52:17;101560.56;;;19.05;100.00
42591;BME280;28218;53.342;-6.216;2022-08-01T08:54:48;101549.69;;;19.13;100.00
42591;BME280;28218;53.342;-6.216;2022-08-01T08:57:18;101552.59;;;19.19;100.00
42591;BME280;28218;53.342;-6.216;2022-08-01T08:59:47;101546.84;;;19.15;100.00
42591;BME280;28218;53.342;-6.216;2022-08-01T09:02:19;101534.50;;;19.14;100.00
42591;BME280;28218;53.342;-6.216;2022-08-01T09:04:48;101525.88;;;19.12;100.00
42591;BME280;28218;53.342;-6.216;2022-08-01T09:07:18;101537.16;;;19.07;100.00
42591;BME280;28218;53.342;-6.216;2022-08-01T09:09:47;101533.47;;;19.08;100.00
42591;BME280;28218;53.342;-6.216;2022-08-01T09:12:17;101542.72;;;19.19;100.00
42591;BME280;28218;53.342;-6.216;2022-08-01T09:14:47;101542.72;;;19.32;100.00
42591;BME280;28218;53.342;-6.216;2022-08-01T09:17:17;101531.63;;;19.42;100.00
42591;BME280;28218;53.342;-6.216;2022-08-01T09:19:47;101533.88;;;19.45;100.00
42591;BME280;28218;53.342;-6.216;2022-08-01T09:22:18;101540.03;;;19.52;100.00
42591;BME280;28218;53.342;-6.216;2022-08-01T09:24:59;101532.66;;;19.61;100.00
42591;BME280;28218;53.342;-6.216;2022-08-01T09:27:27;101530.00;;;19.68;100.00
42591;BME280;28218;53.342;-6.216;2022-08-01T09:30:08;101535.09;;;19.76;100.00
42591;BME280;28218;53.342;-6.216;2022-08-01T09:32:52;101529.53;;;19.90;100.00
42591;BME280;28218;53.342;-6.216;2022-08-01T09:35:25;101522.03;;;20.12;100.00
42591;BME280;28218;53.342;-6.216;2022-08-01T09:38:17;101513.34;;;20.24;100.00
42591;BME280;28218;53.342;-6.216;2022-08-01T09:40:51;101517.22;;;20.34;100.00
42591;BME280;28218;53.342;-6.216;2022-08-01T09:43:25;101518.59;;;20.43;100.00
42591;BME280;28218;53.342;-6.216;2022-08-01T09:45:53;101518.59;;;20.50;100.00
42591;BME280;28218;53.342;-6.216;2022-08-01T09:48:24;101524.13;;;20.55;100.00
42591;BME280;28218;53.342;-6.216;2022-08-01T09:50:54;101519.78;;;20.61;100.00
42591;BME280;28218;53.342;-6.216;2022-08-01T09:53:42;101515.84;;;20.63;100.00
42591;BME280;28218;53.342;-6.216;2022-08-01T09:56:19;101504.09;;;20.64;100.00
42591;BME280;28218;53.342;-6.216;2022-08-01T09:58:49;101505.31;;;20.68;100.00
42591;BME280;28218;53.342;-6.216;2022-08-01T10:01:25;101507.75;;;20.70;100.00
42591;BME280;28218;53.342;-6.216;2022-08-01T10:04:06;101510.25;;;20.72;100.00
42591;BME280;28218;53.342;-6.216;2022-08-01T10:06:37;101501.16;;;20.73;100.00
42591;BME280;28218;53.342;-6.216;2022-08-01T10:09:08;101496.53;;;20.86;100.00
42591;BME280;28218;53.342;-6.216;2022-08-01T10:11:37;101495.63;;;20.99;100.00
42591;BME280;28218;53.342;-6.216;2022-08-01T10:14:07;101486.03;;;21.10;100.00
42591;BME280;28218;53.342;-6.216;2022-08-01T10:16:36;101490.00;;;21.26;100.00
42591;BME280;28218;53.342;-6.216;2022-08-01T10:19:06;101477.19;;;21.34;100.00
42591;BME280;28218;53.342;-6.216;2022-08-01T10:21:41;101472.25;;;21.31;100.00
42591;BME280;28218;53.342;-6.216;2022-08-01T10:24:27;101473.63;;;21.40;100.00
42591;BME280;28218;53.342;-6.216;2022-08-01T10:27:03;101470.06;;;21.47;100.00
42591;BME280;28218;53.342;-6.216;2022-08-01T10:29:37;101459.25;;;21.53;100.00
42591;BME280;28218;53.342;-6.216;2022-08-01T10:32:27;101456.69;;;21.65;100.00
42591;BME280;28218;53.342;-6.216;2022-08-01T10:34:56;101443.41;;;21.70;100.00
42591;BME280;28218;53.342;-6.216;2022-08-01T10:37:33;101444.50;;;21.81;100.00
42591;BME280;28218;53.342;-6.216;2022-08-01T10:40:19;101438.84;;;21.89;100.00
42591;BME280;28218;53.342;-6.216;2022-08-01T10:42:57;101439.00;;;21.94;100.00
42591;BME280;28218;53.342;-6.216;2022-08-01T10:45:25;101436.97;;;21.89;100.00
42591;BME280;28218;53.342;-6.216;2022-08-01T10:48:02;101433.53;;;21.82;100.00
42591;BME280;28218;53.342;-6.216;2022-08-01T10:50:37;101429.91;;;21.77;100.00
42591;BME280;28218;53.342;-6.216;2022-08-01T10:53:11;101424.97;;;21.74;100.00
42591;BME280;28218;53.342;-6.216;2022-08-01T10:55:52;101435.66;;;21.80;100.00
42591;BME280;28218;53.342;-6.216;2022-08-01T10:58:30;101430.88;;;21.82;100.00
42591;BME280;28218;53.342;-6.216;2022-08-01T11:01:19;101420.00;;;21.77;100.00
42591;BME280;28218;53.342;-6.216;2022-08-01T11:04:09;101405.19;;;21.75;100.00
42591;BME280;28218;53.342;-6.216;2022-08-01T11:06:53;101409.06;;;21.79;100.00
42591;BME280;28218;53.342;-6.216;2022-08-01T11:09:28;101404.56;;;21.73;100.00
42591;BME280;28218;53.342;-6.216;2022-08-01T11:12:07;101404.56;;;21.73;100.00
42591;BME280;28218;53.342;-6.216;2022-08-01T11:15:21;101404.06;;;21.64;100.00
42591;BME280;28218;53.342;-6.216;2022-08-01T11:17:59;101404.16;;;21.57;100.00
42591;BME280;28218;53.342;-6.216;2022-08-01T11:20:29;101390.44;;;21.47;100.00
42591;BME280;28218;53.342;-6.216;2022-08-01T11:23:22;101389.25;;;21.43;100.00
42591;BME280;28218;53.342;-6.216;2022-08-01T11:26:07;101388.22;;;21.44;100.00
42591;BME280;28218;53.342;-6.216;2022-08-01T11:28:38;101371.69;;;21.47;100.00
42591;BME280;28218;53.342;-6.216;2022-08-01T11:31:36;101369.72;;;21.36;100.00
42591;BME280;28218;53.342;-6.216;2022-08-01T11:34:05;101373.28;;;21.30;100.00
42591;BME280;28218;53.342;-6.216;2022-08-01T11:36:34;101371.66;;;21.29;100.00
42591;BME280;28218;53.342;-6.216;2022-08-01T11:39:22;101372.56;;;21.23;100.00
42591;BME280;28218;53.342;-6.216;2022-08-01T11:41:51;101369.72;;;21.17;100.00
42591;BME280;28218;53.342;-6.216;2022-08-01T11:44:24;101368.97;;;21.10;100.00
42591;BME280;28218;53.342;-6.216;2022-08-01T11:47:07;101357.03;;;21.06;100.00
42591;BME280;28218;53.342;-6.216;2022-08-01T11:49:46;101354.22;;;21.01;100.00
42591;BME280;28218;53.342;-6.216;2022-08-01T11:52:17;101349.28;;;20.98;100.00
42591;BME280;28218;53.342;-6.216;2022-08-01T11:54:48;101347.06;;;20.95;100.00
42591;BME280;28218;53.342;-6.216;2022-08-01T11:57:19;101343.78;;;20.93;100.00
42591;BME280;28218;53.342;-6.216;2022-08-01T11:59:51;101331.66;;;20.90;100.00
42591;BME280;28218;53.342;-6.216;2022-08-01T12:02:31;101336.41;;;20.88;100.00
42591;BME280;28218;53.342;-6.216;2022-08-01T12:05:02;101333.38;;;20.85;100.00
42591;BME280;28218;53.342;-6.216;2022-08-01T12:07:34;101331.72;;;20.84;100.00
42591;BME280;28218;53.342;-6.216;2022-08-01T12:10:05;101332.16;;;20.81;100.00
42591;BME280;28218;53.342;-6.216;2022-08-01T12:12:35;101326.44;;;20.77;100.00
42591;BME280;28218;53.342;-6.216;2022-08-01T12:15:08;101324.81;;;20.76;100.00
42591;BME280;28218;53.342;-6.216;2022-08-01T12:17:38;101318.63;;;20.76;100.00
42591;BME280;28218;53.342;-6.216;2022-08-01T12:20:14;101321.66;;;20.79;100.00
42591;BME280;28218;53.342;-6.216;2022-08-01T12:22:43;101313.19;;;20.82;100.00
42591;BME280;28218;53.342;-6.216;2022-08-01T12:25:12;101309.28;;;20.85;100.00
42591;BME280;28218;53.342;-6.216;2022-08-01T12:27:41;101308.22;;;20.86;100.00
42591;BME280;28218;53.342;-6.216;2022-08-01T12:30:13;101299.94;;;20.87;100.00
42591;BME280;28218;53.342;-6.216;2022-08-01T12:32:42;101295.78;;;20.91;100.00
42591;BME280;28218;53.342;-6.216;2022-08-01T12:35:13;101288.56;;;20.92;100.00
42591;BME280;28218;53.342;-6.216;2022-08-01T12:37:45;101277.84;;;20.92;100.00
42591;BME280;28218;53.342;-6.216;2022-08-01T12:40:17;101276.38;;;20.96;100.00
42591;BME280;28218;53.342;-6.216;2022-08-01T12:42:48;101271.41;;;21.00;100.00
42591;BME280;28218;53.342;-6.216;2022-08-01T12:45:20;101277.13;;;21.03;100.00
42591;BME280;28218;53.342;-6.216;2022-08-01T12:47:49;101268.63;;;21.06;100.00
42591;BME280;28218;53.342;-6.216;2022-08-01T12:50:21;101258.88;;;21.12;100.00
42591;BME280;28218;53.342;-6.216;2022-08-01T12:52:50;101254.25;;;21.19;100.00
42591;BME280;28218;53.342;-6.216;2022-08-01T12:55:20;101248.38;;;21.29;100.00